createdAt,value
2023-05-05T00:01:28.255Z,12.19
2023-05-05T00:03:55.234Z,12.10
2023-05-05T00:06:22.085Z,12.14
2023-05-05T00:08:48.910Z,12.24
2023-05-05T00:11:15.735Z,12.16
2023-05-05T00:13:42.638Z,12.09
2023-05-05T00:16:09.554Z,12.26
2023-05-05T00:18:36.499Z,12.25
2023-05-05T00:21:04.619Z,12.10
2023-05-05T00:23:31.567Z,11.99
2023-05-05T00:25:58.406Z,12.17
2023-05-05T00:28:25.237Z,12.21
2023-05-05T00:30:52.204Z,12.12
2023-05-05T00:33:19.186Z,12.15
2023-05-05T00:35:46.650Z,12.33
2023-05-05T00:38:13.605Z,12.26
2023-05-05T00:40:41.681Z,12.20
2023-05-05T00:43:08.572Z,12.34
2023-05-05T00:45:37.462Z,12.32
2023-05-05T00:48:04.640Z,12.17
2023-05-05T00:50:31.657Z,12.20
2023-05-05T00:53:04.646Z,12.33
2023-05-05T00:55:31.758Z,12.21
2023-05-05T00:57:59.399Z,12.15
2023-05-05T01:00:27.291Z,12.29
2023-05-05T01:02:55.408Z,12.27
2023-05-05T01:05:23.076Z,12.19
2023-05-05T01:07:55.896Z,12.15
2023-05-05T01:10:30.546Z,12.08
2023-05-05T01:13:10.882Z,11.96
2023-05-05T01:15:41.159Z,11.98
2023-05-05T01:18:19.774Z,11.83
2023-05-05T01:20:52.518Z,11.76
2023-05-05T01:23:50.360Z,11.81
2023-05-05T01:26:54.905Z,11.72
2023-05-05T01:29:34.665Z,11.60
2023-05-05T01:32:01.952Z,11.61
2023-05-05T01:34:39.241Z,11.65
2023-05-05T01:37:16.229Z,11.67
2023-05-05T01:39:43.085Z,11.61
2023-05-05T01:42:14.002Z,11.53
2023-05-05T01:44:44.396Z,11.51
2023-05-05T01:47:18.957Z,11.46
2023-05-05T01:49:47.445Z,11.39
2023-05-05T01:52:15.233Z,11.30
2023-05-05T01:54:43.029Z,11.27
2023-05-05T01:57:10.031Z,11.26
2023-05-05T01:59:38.258Z,11.18
2023-05-05T02:02:07.207Z,11.01
2023-05-05T02:04:34.225Z,10.97
2023-05-05T02:07:01.418Z,11.04
2023-05-05T02:09:28.711Z,10.97
2023-05-05T02:11:57.124Z,10.92
2023-05-05T02:14:24.054Z,10.93
2023-05-05T02:16:50.862Z,10.91
2023-05-05T02:19:17.705Z,10.93
2023-05-05T02:21:45.086Z,10.95
2023-05-05T02:24:12.134Z,10.93
2023-05-05T02:26:39.864Z,10.92
2023-05-05T02:29:12.997Z,10.92
2023-05-05T02:31:51.304Z,10.97
2023-05-05T02:34:22.854Z,11.02
2023-05-05T02:36:51.931Z,11.02
2023-05-05T02:39:22.159Z,11.01
2023-05-05T02:41:49.605Z,11.08
2023-05-05T02:44:23.675Z,11.03
2023-05-05T02:46:51.196Z,11.07
2023-05-05T02:49:18.279Z,11.06
2023-05-05T02:51:45.280Z,11.07
2023-05-05T02:54:19.279Z,11.10
2023-05-05T02:56:48.705Z,11.12
2023-05-05T02:59:48.707Z,11.09
2023-05-05T03:02:25.046Z,11.14
2023-05-05T03:04:54.347Z,11.14
2023-05-05T03:07:26.496Z,11.12
2023-05-05T03:10:08.849Z,11.14
2023-05-05T03:12:48.435Z,11.16
2023-05-05T03:15:22.641Z,11.17
2023-05-05T03:17:50.286Z,11.17
2023-05-05T03:20:17.323Z,11.23
2023-05-05T03:22:45.810Z,11.28
2023-05-05T03:25:13.979Z,11.19
2023-05-05T03:27:41.115Z,11.13
2023-05-05T03:30:09.593Z,11.15
2023-05-05T03:32:40.462Z,11.19
2023-05-05T03:35:07.668Z,11.14
2023-05-05T03:37:34.851Z,11.18
2023-05-05T03:40:02.205Z,11.21
2023-05-05T03:42:30.463Z,11.22
2023-05-05T03:44:57.706Z,11.22
2023-05-05T03:47:26.403Z,11.21
2023-05-05T03:49:53.692Z,11.17
2023-05-05T03:52:24.015Z,11.07
2023-05-05T03:54:52.295Z,10.98
2023-05-05T03:57:19.120Z,10.71
2023-05-05T03:59:46.184Z,10.67
2023-05-05T04:02:13.271Z,10.67
2023-05-05T04:04:40.525Z,10.69
2023-05-05T04:07:07.401Z,10.67
2023-05-05T04:09:34.284Z,10.74
2023-05-05T04:12:01.605Z,10.65
2023-05-05T04:14:30.230Z,10.55
2023-05-05T04:16:57.733Z,10.45
2023-05-05T04:19:24.746Z,10.48
2023-05-05T04:21:52.183Z,10.51
2023-05-05T04:24:24.971Z,10.45
2023-05-05T04:26:52.692Z,10.43
2023-05-05T04:29:19.930Z,10.39
2023-05-05T04:31:46.866Z,10.33
2023-05-05T04:34:14.425Z,10.36
2023-05-05T04:36:41.739Z,10.49
2023-05-05T04:39:09.344Z,10.58
2023-05-05T04:41:36.489Z,10.60
2023-05-05T04:44:03.617Z,10.65
2023-05-05T04:46:31.003Z,10.62
2023-05-05T04:48:58.980Z,10.73
2023-05-05T04:51:27.775Z,10.78
2023-05-05T04:53:55.899Z,10.87
2023-05-05T04:56:23.925Z,10.98
2023-05-05T04:58:50.888Z,11.09
2023-05-05T05:01:17.837Z,11.18
2023-05-05T05:03:44.830Z,11.21
2023-05-05T05:06:12.867Z,11.27
2023-05-05T05:08:39.763Z,11.43
2023-05-05T05:11:06.577Z,11.56
2023-05-05T05:13:33.962Z,11.64
2023-05-05T05:16:01.491Z,11.66
2023-05-05T05:18:28.758Z,11.76
2023-05-05T05:20:56.345Z,11.71
2023-05-05T05:23:23.578Z,11.73
2023-05-05T05:25:51.161Z,11.83
2023-05-05T05:28:19.983Z,12.04
2023-05-05T05:30:52.153Z,12.20
2023-05-05T05:33:19.970Z,12.29
2023-05-05T05:35:47.723Z,12.18
2023-05-05T05:38:15.097Z,12.26
2023-05-05T05:40:42.389Z,12.39
2023-05-05T05:43:10.282Z,12.36
2023-05-05T05:45:38.448Z,12.40
2023-05-05T05:48:08.074Z,12.57
2023-05-05T05:50:36.358Z,12.64
2023-05-05T05:53:04.122Z,12.77
2023-05-05T05:55:31.332Z,12.93
2023-05-05T05:57:58.492Z,12.70
2023-05-05T06:00:26.153Z,12.62
2023-05-05T06:02:56.016Z,12.82
2023-05-05T06:05:27.018Z,12.65
2023-05-05T06:07:54.299Z,12.06
2023-05-05T06:10:28.084Z,11.96
2023-05-05T06:13:02.165Z,12.07
2023-05-05T06:15:31.086Z,12.21
2023-05-05T06:17:58.508Z,12.32
2023-05-05T06:20:26.455Z,12.13
2023-05-05T06:22:53.591Z,12.13
2023-05-05T06:25:21.529Z,12.03
2023-05-05T06:27:49.741Z,12.55
2023-05-05T06:30:16.710Z,12.68
2023-05-05T06:32:43.696Z,12.48
2023-05-05T06:35:10.602Z,12.78
2023-05-05T06:37:38.456Z,12.57
2023-05-05T06:40:07.199Z,12.47
2023-05-05T06:42:34.316Z,12.65
2023-05-05T06:45:04.220Z,12.99
2023-05-05T06:47:32.122Z,12.86
2023-05-05T06:49:58.994Z,12.70
2023-05-05T06:52:26.893Z,12.62
2023-05-05T06:54:53.773Z,12.71
2023-05-05T06:57:20.881Z,12.71
2023-05-05T06:59:47.792Z,12.54
2023-05-05T07:02:14.629Z,12.47
2023-05-05T07:04:41.552Z,12.34
2023-05-05T07:07:08.455Z,12.39
2023-05-05T07:09:35.410Z,12.42
2023-05-05T07:12:02.603Z,12.45
2023-05-05T07:14:29.500Z,12.41
2023-05-05T07:16:56.427Z,12.52
2023-05-05T07:19:23.684Z,12.57
2023-05-05T07:21:50.512Z,12.37
2023-05-05T07:24:17.340Z,12.60
2023-05-05T07:26:44.242Z,12.90
2023-05-05T07:29:11.145Z,13.20
2023-05-05T07:31:38.112Z,13.41
2023-05-05T07:34:05.038Z,13.39
2023-05-05T07:36:32.307Z,13.28
2023-05-05T07:38:59.279Z,13.15
2023-05-05T07:41:26.501Z,13.12
2023-05-05T07:43:53.471Z,13.29
2023-05-05T07:46:20.382Z,13.41
2023-05-05T07:48:47.310Z,13.70
2023-05-05T07:51:14.611Z,13.99
2023-05-05T07:53:41.543Z,14.16
2023-05-05T07:56:09.077Z,14.14
2023-05-05T07:58:35.987Z,14.37
2023-05-05T08:01:02.897Z,14.32
2023-05-05T08:03:29.943Z,14.06
2023-05-05T08:05:57.050Z,13.94
2023-05-05T08:08:25.190Z,13.91
2023-05-05T08:10:53.406Z,13.95
2023-05-05T08:13:20.661Z,13.98
2023-05-05T08:15:47.812Z,14.40
2023-05-05T08:18:14.813Z,14.73
2023-05-05T08:20:41.817Z,15.04
2023-05-05T08:23:08.753Z,15.01
2023-05-05T08:25:36.068Z,15.13
2023-05-05T08:28:02.910Z,14.68
2023-05-05T08:30:30.103Z,14.56
2023-05-05T08:32:56.998Z,14.59
2023-05-05T08:35:23.954Z,14.75
2023-05-05T08:37:51.862Z,14.57
2023-05-05T08:40:20.960Z,14.68
2023-05-05T08:42:48.220Z,14.55
2023-05-05T08:45:16.064Z,14.59
2023-05-05T08:47:43.648Z,14.87
2023-05-05T08:50:11.302Z,15.11
2023-05-05T08:55:24.377Z,14.76
2023-05-05T08:57:56.566Z,14.88
2023-05-05T09:00:24.754Z,14.97
2023-05-05T09:02:51.900Z,15.31
2023-05-05T09:05:19.006Z,15.82
2023-05-05T09:07:47.436Z,16.31
2023-05-05T09:10:14.533Z,16.37
2023-05-05T09:12:41.746Z,15.94
2023-05-05T09:15:10.946Z,15.74
2023-05-05T09:17:39.369Z,15.70
2023-05-05T09:20:11.244Z,15.76
2023-05-05T09:22:46.513Z,15.91
2023-05-05T09:25:15.144Z,15.86
2023-05-05T09:27:46.130Z,16.08
2023-05-05T09:30:32.183Z,15.81
2023-05-05T09:32:59.462Z,15.48
2023-05-05T09:35:26.822Z,15.48
2023-05-05T09:37:53.699Z,15.69
2023-05-05T09:40:21.047Z,15.98
2023-05-05T09:42:48.023Z,16.07
2023-05-05T09:45:17.976Z,16.23
2023-05-05T09:47:48.429Z,16.16
2023-05-05T09:50:18.542Z,16.35
2023-05-05T09:53:00.931Z,16.36
2023-05-05T09:55:29.296Z,15.96
2023-05-05T09:57:56.346Z,16.04
2023-05-05T10:00:26.210Z,16.31
2023-05-05T10:02:53.212Z,16.52
2023-05-05T10:05:21.266Z,16.45
2023-05-05T10:07:48.250Z,16.74
2023-05-05T10:10:16.688Z,17.11
2023-05-05T10:12:46.560Z,17.44
2023-05-05T10:15:14.002Z,17.38
2023-05-05T10:18:05.077Z,17.22
2023-05-05T10:20:34.271Z,17.14
2023-05-05T10:23:02.912Z,16.90
2023-05-05T10:25:33.776Z,16.79
2023-05-05T10:28:01.413Z,16.72
2023-05-05T10:30:33.227Z,17.00
2023-05-05T10:33:30.965Z,17.39
2023-05-05T10:36:01.790Z,17.81
2023-05-05T10:38:31.028Z,17.74
2023-05-05T10:40:59.316Z,17.67
2023-05-05T10:43:26.856Z,17.34
2023-05-05T10:45:53.915Z,16.76
2023-05-05T10:48:26.780Z,16.85
2023-05-05T10:50:56.545Z,17.24
2023-05-05T10:53:29.453Z,17.64
2023-05-05T10:55:59.085Z,18.20
2023-05-05T10:58:46.873Z,18.59
2023-05-05T11:01:34.994Z,18.91
2023-05-05T11:04:21.130Z,18.67
2023-05-05T11:07:14.619Z,18.71
2023-05-05T11:09:55.207Z,18.64
2023-05-05T11:12:23.132Z,18.80
2023-05-05T11:15:28.166Z,19.07
2023-05-05T11:17:58.985Z,18.89
2023-05-05T11:20:35.469Z,18.70
2023-05-05T11:23:02.281Z,18.71
2023-05-05T11:25:35.742Z,18.95
2023-05-05T11:28:25.927Z,19.08
2023-05-05T11:30:56.376Z,18.90
2023-05-05T11:33:33.646Z,18.91
2023-05-05T11:36:03.412Z,18.50
2023-05-05T11:38:54.604Z,18.21
2023-05-05T11:41:30.740Z,18.21
2023-05-05T11:44:14.491Z,18.30
2023-05-05T11:46:54.315Z,18.80
2023-05-05T11:49:28.231Z,19.11
2023-05-05T11:52:01.400Z,19.14
2023-05-05T11:54:28.548Z,19.28
2023-05-05T11:57:00.642Z,19.75
2023-05-05T11:59:27.572Z,20.22
2023-05-05T12:01:54.459Z,20.32
2023-05-05T12:04:22.492Z,20.48
2023-05-05T12:06:49.582Z,20.67
2023-05-05T12:09:21.156Z,20.42
2023-05-05T12:11:56.023Z,19.87
2023-05-05T12:14:23.568Z,19.33
2023-05-05T12:17:05.020Z,19.34
2023-05-05T12:19:36.280Z,19.47
2023-05-05T12:22:04.129Z,19.20
2023-05-05T12:24:33.032Z,19.31
2023-05-05T12:27:09.524Z,19.62
2023-05-05T12:29:36.595Z,19.96
2023-05-05T12:32:03.753Z,20.14
2023-05-05T12:34:31.301Z,20.20
2023-05-05T12:36:58.125Z,20.17
2023-05-05T12:39:36.554Z,19.71
2023-05-05T12:42:06.640Z,19.71
2023-05-05T12:44:36.299Z,20.05
2023-05-05T12:47:03.532Z,20.61
2023-05-05T12:49:33.956Z,20.75
2023-05-05T12:52:01.084Z,20.49
2023-05-05T12:54:30.982Z,20.22
2023-05-05T12:56:58.649Z,20.26
2023-05-05T12:59:25.508Z,20.63
2023-05-05T13:01:53.474Z,21.05
2023-05-05T13:04:25.919Z,21.27
2023-05-05T13:07:13.257Z,21.49
2023-05-05T13:16:44.323Z,19.32
2023-05-05T13:19:12.657Z,20.07
2023-05-05T13:21:43.111Z,20.38
2023-05-05T13:24:21.389Z,20.82
2023-05-05T13:26:53.662Z,20.85
2023-05-05T13:29:27.292Z,20.56
2023-05-05T13:31:59.076Z,20.38
2023-05-05T13:34:29.296Z,20.23
2023-05-05T13:36:57.986Z,20.02
2023-05-05T13:39:25.560Z,19.64
2023-05-05T13:41:57.309Z,19.65
2023-05-05T13:44:24.567Z,19.71
2023-05-05T13:46:56.671Z,20.04
2023-05-05T13:49:33.614Z,20.34
2023-05-05T13:53:32.110Z,20.79
2023-05-05T13:55:59.998Z,20.93
2023-05-05T13:58:26.769Z,21.34
2023-05-05T14:00:53.526Z,21.64
2023-05-05T14:03:21.958Z,21.38
2023-05-05T14:05:48.759Z,21.23
2023-05-05T14:08:15.547Z,21.40
2023-05-05T14:10:42.314Z,21.80
2023-05-05T14:13:09.098Z,22.23
2023-05-05T14:17:43.235Z,21.63
2023-05-05T14:20:10.440Z,22.28
2023-05-05T14:22:38.303Z,22.47
2023-05-05T14:25:06.118Z,22.68
2023-05-05T14:27:33.089Z,22.90
2023-05-05T14:29:59.855Z,23.25
2023-05-05T14:32:26.697Z,23.29
2023-05-05T14:34:55.417Z,22.35
2023-05-05T14:37:22.726Z,21.35
2023-05-05T14:39:49.525Z,21.05
2023-05-05T14:42:16.347Z,20.85
2023-05-05T14:44:44.046Z,20.77
2023-05-05T14:47:10.939Z,20.83
2023-05-05T14:49:37.619Z,20.64
2023-05-05T14:52:04.378Z,20.94
2023-05-05T14:54:31.212Z,21.34
2023-05-05T14:56:58.469Z,21.17
2023-05-05T14:59:25.411Z,21.31
2023-05-05T15:01:52.180Z,21.07
2023-05-05T15:04:19.192Z,20.57
2023-05-05T15:06:45.993Z,20.55
2023-05-05T15:09:13.429Z,20.13
2023-05-05T15:11:41.483Z,19.51
2023-05-05T15:14:08.252Z,19.34
2023-05-05T15:16:35.427Z,19.25
2023-05-05T15:19:02.552Z,19.05
2023-05-05T15:21:29.248Z,18.65
2023-05-05T15:23:55.981Z,18.29
2023-05-05T15:26:24.064Z,18.14
2023-05-05T15:28:52.649Z,18.26
2023-05-05T15:31:19.675Z,18.38
2023-05-05T15:33:48.713Z,18.52
2023-05-05T15:36:22.486Z,18.59
2023-05-05T15:38:49.546Z,18.56
2023-05-05T15:41:16.576Z,18.32
2023-05-05T15:43:43.338Z,18.48
2023-05-05T15:46:10.311Z,18.62
2023-05-05T15:48:37.067Z,18.72
2023-05-05T15:51:03.961Z,18.75
2023-05-05T15:53:30.828Z,18.86
2023-05-05T15:55:57.575Z,18.83
2023-05-05T15:58:24.390Z,19.08
2023-05-05T16:00:51.323Z,19.52
2023-05-05T16:03:18.330Z,19.79
2023-05-05T16:05:47.493Z,19.93
2023-05-05T16:08:14.332Z,19.85
2023-05-05T16:10:41.162Z,19.63
2023-05-05T16:13:08.055Z,19.51
2023-05-05T16:15:36.573Z,19.33
2023-05-05T16:18:03.540Z,19.10
2023-05-05T16:20:30.788Z,19.01
2023-05-05T16:22:57.652Z,18.96
2023-05-05T16:25:24.490Z,19.04
2023-05-05T16:27:52.355Z,19.08
2023-05-05T16:30:19.237Z,18.98
2023-05-05T16:32:47.350Z,18.91
2023-05-05T16:35:15.391Z,18.93
2023-05-05T16:37:42.223Z,18.85
2023-05-05T16:40:09.854Z,18.71
2023-05-05T16:42:36.632Z,18.59
2023-05-05T16:45:03.639Z,18.52
2023-05-05T16:47:30.375Z,18.51
2023-05-05T16:49:57.430Z,18.58
2023-05-05T16:52:24.183Z,18.54
2023-05-05T16:54:55.600Z,18.39
2023-05-05T16:57:23.175Z,18.13
2023-05-05T16:59:49.978Z,17.77
2023-05-05T17:02:16.820Z,17.44
2023-05-05T17:04:43.636Z,17.20
2023-05-05T17:07:10.442Z,16.99
2023-05-05T17:09:37.193Z,16.85
2023-05-05T17:12:04.507Z,16.75
2023-05-05T17:14:31.564Z,16.66
2023-05-05T17:16:58.307Z,16.59
2023-05-05T17:19:25.077Z,16.54
2023-05-05T17:21:51.884Z,16.45
2023-05-05T17:24:18.603Z,16.32
2023-05-05T17:26:45.378Z,16.19
2023-05-05T17:29:13.061Z,16.08
2023-05-05T17:31:40.244Z,15.96
2023-05-05T17:34:07.067Z,15.86
2023-05-05T17:36:33.867Z,15.78
2023-05-05T17:39:00.718Z,15.72
2023-05-05T17:41:27.548Z,15.66
2023-05-05T17:43:54.267Z,15.58
2023-05-05T17:46:21.120Z,15.51
2023-05-05T17:48:48.166Z,15.46
2023-05-05T17:51:15.004Z,15.42
2023-05-05T17:53:41.950Z,15.38
2023-05-05T17:56:09.682Z,15.34
2023-05-05T17:58:36.416Z,15.29
2023-05-05T18:01:03.147Z,15.25
2023-05-05T18:03:30.082Z,15.21
2023-05-05T18:05:58.094Z,15.18
2023-05-05T18:08:24.895Z,15.15
2023-05-05T18:10:53.030Z,15.12
2023-05-05T18:13:21.040Z,15.11
2023-05-05T18:15:47.793Z,15.08
2023-05-05T18:18:14.716Z,15.06
2023-05-05T18:20:41.446Z,15.00
2023-05-05T18:23:08.217Z,14.97
2023-05-05T18:25:36.488Z,14.94
2023-05-05T18:28:05.527Z,14.88
2023-05-05T18:30:32.885Z,14.88
2023-05-05T18:32:59.770Z,14.85
2023-05-05T18:35:26.470Z,14.81
2023-05-05T18:37:55.219Z,14.72
2023-05-05T18:40:23.132Z,14.71
2023-05-05T18:42:49.889Z,14.66
2023-05-05T18:45:16.755Z,14.62
2023-05-05T18:47:43.586Z,14.57
2023-05-05T18:50:10.474Z,14.51
2023-05-05T18:52:37.246Z,14.47
2023-05-05T18:55:04.284Z,14.51
2023-05-05T18:57:31.143Z,14.46
2023-05-05T18:59:57.963Z,14.42
2023-05-05T19:02:24.880Z,14.39
2023-05-05T19:04:51.689Z,14.36
2023-05-05T19:07:27.904Z,14.32
2023-05-05T19:10:04.310Z,14.33
2023-05-05T19:12:31.126Z,14.32
2023-05-05T19:14:57.847Z,14.30
2023-05-05T19:17:24.634Z,14.24
2023-05-05T19:19:51.586Z,14.20
2023-05-05T19:22:20.754Z,14.16
2023-05-05T19:24:47.484Z,14.11
2023-05-05T19:27:16.571Z,14.08
2023-05-05T19:29:43.842Z,14.07
2023-05-05T19:32:10.813Z,14.02
2023-05-05T19:34:37.863Z,13.92
2023-05-05T19:37:04.657Z,13.96
2023-05-05T19:39:31.721Z,13.81
2023-05-05T19:41:59.614Z,13.82
2023-05-05T19:44:26.320Z,13.73
2023-05-05T19:46:53.176Z,13.71
2023-05-05T19:49:20.088Z,13.62
2023-05-05T19:51:49.805Z,13.52
2023-05-05T19:54:16.619Z,13.52
2023-05-05T19:56:43.407Z,13.66
2023-05-05T19:59:10.984Z,13.52
2023-05-05T20:01:38.007Z,13.35
2023-05-05T20:04:04.969Z,13.43
2023-05-05T20:06:32.425Z,13.43
2023-05-05T20:08:59.231Z,13.36
2023-05-05T20:11:26.205Z,13.23
2023-05-05T20:13:53.449Z,13.31
2023-05-05T20:16:21.591Z,13.18
2023-05-05T20:18:48.631Z,12.98
2023-05-05T20:21:16.670Z,13.07
2023-05-05T20:23:45.270Z,13.06
2023-05-05T20:26:12.308Z,13.05
2023-05-05T20:28:39.500Z,12.99
2023-05-05T20:31:07.465Z,13.05
2023-05-05T20:33:34.357Z,12.96
2023-05-05T20:36:01.331Z,12.88
2023-05-05T20:38:28.069Z,12.96
2023-05-05T20:40:54.829Z,12.81
2023-05-05T20:43:22.686Z,12.84
2023-05-05T20:45:49.402Z,12.84
2023-05-05T20:48:16.191Z,12.79
2023-05-05T20:50:42.959Z,12.79
2023-05-05T20:53:10.938Z,12.72
2023-05-05T20:55:37.720Z,12.44
2023-05-05T20:58:04.853Z,12.35
2023-05-05T21:00:31.710Z,12.48
2023-05-05T21:02:58.838Z,12.24
2023-05-05T21:05:26.014Z,11.84
2023-05-05T21:07:53.317Z,12.02
2023-05-05T21:10:20.302Z,12.00
2023-05-05T21:12:47.154Z,12.08
2023-05-05T21:15:13.966Z,11.78
2023-05-05T21:17:41.760Z,11.78
2023-05-05T21:20:09.359Z,11.85
2023-05-05T21:22:36.366Z,11.84
2023-05-05T21:25:17.211Z,11.61
2023-05-05T21:27:44.072Z,11.62
2023-05-05T21:30:11.512Z,11.68
2023-05-05T21:32:39.374Z,11.52
2023-05-05T21:35:07.922Z,11.48
2023-05-05T21:37:36.316Z,11.14
2023-05-05T21:40:03.304Z,11.22
2023-05-05T21:42:30.835Z,11.29
2023-05-05T21:44:57.557Z,11.04
2023-05-05T21:47:24.353Z,11.06
2023-05-05T21:49:52.179Z,11.21
2023-05-05T21:52:18.968Z,11.23
2023-05-05T21:54:45.821Z,10.97
2023-05-05T21:57:12.590Z,10.88
2023-05-05T21:59:39.361Z,10.92
2023-05-05T22:02:06.139Z,10.90
2023-05-05T22:04:32.903Z,10.83
2023-05-05T22:06:59.658Z,10.78
2023-05-05T22:09:26.492Z,10.71
2023-05-05T22:11:53.282Z,10.61
2023-05-05T22:14:21.540Z,10.55
2023-05-05T22:16:48.420Z,10.43
2023-05-05T22:19:15.216Z,10.46
2023-05-05T22:21:42.334Z,10.50
2023-05-05T22:24:09.071Z,10.54
2023-05-05T22:26:35.806Z,10.53
2023-05-05T22:29:02.556Z,10.40
2023-05-05T22:31:30.878Z,10.37
2023-05-05T22:33:57.704Z,10.18
2023-05-05T22:36:24.535Z,10.11
2023-05-05T22:38:51.763Z,10.07
2023-05-05T22:41:18.546Z,10.01
2023-05-05T22:43:45.306Z,9.90
2023-05-05T22:46:12.311Z,9.91
2023-05-05T22:48:39.039Z,9.95
2023-05-05T22:51:07.654Z,9.94
2023-05-05T22:53:34.496Z,9.95
2023-05-05T22:56:01.328Z,9.92
2023-05-05T22:58:28.415Z,9.97
2023-05-05T23:00:55.260Z,9.80
2023-05-05T23:03:22.053Z,9.82
2023-05-05T23:05:48.763Z,9.81
2023-05-05T23:08:15.585Z,9.87
2023-05-05T23:10:42.307Z,9.88
2023-05-05T23:13:09.268Z,9.80
2023-05-05T23:15:36.539Z,9.67
2023-05-05T23:18:03.287Z,9.70
2023-05-05T23:20:30.070Z,9.56
2023-05-05T23:22:56.796Z,9.57
2023-05-05T23:25:23.507Z,9.58
2023-05-05T23:27:50.704Z,9.51
2023-05-05T23:30:17.643Z,9.53
2023-05-05T23:32:45.091Z,9.67
2023-05-05T23:35:12.283Z,9.70
2023-05-05T23:37:39.234Z,9.71
2023-05-05T23:40:06.948Z,9.73
2023-05-05T23:42:33.648Z,9.72
2023-05-05T23:45:00.981Z,9.54
2023-05-05T23:47:27.712Z,9.54
2023-05-05T23:49:54.429Z,9.57
2023-05-05T23:52:21.927Z,9.58
2023-05-05T23:54:48.628Z,9.63
2023-05-05T23:57:16.095Z,9.59
2023-05-05T23:59:42.812Z,9.46
